createdAt,value
2023-03-07T00:04:36.556Z,2.98
2023-03-07T00:09:37.721Z,3.11
2023-03-07T00:14:38.949Z,3.26
2023-03-07T00:19:40.203Z,3.34
2023-03-07T00:24:41.372Z,3.41
2023-03-07T00:29:42.603Z,3.42
2023-03-07T00:34:43.802Z,3.44
2023-03-07T00:39:44.993Z,3.47
2023-03-07T00:44:46.257Z,3.51
2023-03-07T00:49:47.461Z,3.53
2023-03-07T00:54:48.709Z,3.54
2023-03-07T00:59:49.890Z,3.56
2023-03-07T01:04:51.113Z,3.58
2023-03-07T01:09:53.113Z,3.58
2023-03-07T01:14:54.293Z,3.60
2023-03-07T01:19:55.455Z,3.63
2023-03-07T01:24:56.660Z,3.64
2023-03-07T01:29:57.882Z,3.66
2023-03-07T01:34:59.013Z,3.71
2023-03-07T01:40:00.337Z,3.72
2023-03-07T01:45:01.520Z,3.72
2023-03-07T01:50:03.470Z,3.74
2023-03-07T01:55:04.687Z,3.69
2023-03-07T02:00:08.457Z,3.65
2023-03-07T02:05:09.675Z,3.63
2023-03-07T02:10:10.886Z,3.60
2023-03-07T02:15:12.127Z,3.55
2023-03-07T02:20:13.356Z,3.53
2023-03-07T02:25:14.515Z,3.50
2023-03-07T02:30:15.675Z,3.46
2023-03-07T02:35:16.962Z,3.42
2023-03-07T02:40:18.165Z,3.39
2023-03-07T02:45:19.360Z,3.37
2023-03-07T02:50:20.514Z,3.38
2023-03-07T02:55:21.652Z,3.37
2023-03-07T03:00:22.891Z,3.38
2023-03-07T03:05:24.039Z,3.42
2023-03-07T03:10:25.300Z,3.43
2023-03-07T03:15:26.553Z,3.46
2023-03-07T03:20:28.023Z,3.48
2023-03-07T03:25:29.205Z,3.49
2023-03-07T03:30:32.417Z,3.48
2023-03-07T03:35:33.634Z,3.49
2023-03-07T03:40:34.962Z,3.47
2023-03-07T03:45:36.085Z,3.48
2023-03-07T03:50:37.978Z,3.46
2023-03-07T03:55:39.232Z,3.42
2023-03-07T04:00:40.377Z,3.40
2023-03-07T04:05:41.573Z,3.40
2023-03-07T04:10:43.773Z,3.38
2023-03-07T04:15:45.036Z,3.35
2023-03-07T04:20:46.253Z,3.33
2023-03-07T04:25:47.446Z,3.31
2023-03-07T04:30:52.520Z,3.31
2023-03-07T04:35:53.829Z,3.32
2023-03-07T04:40:55.015Z,3.34
2023-03-07T04:45:56.203Z,3.34
2023-03-07T04:50:57.429Z,3.35
2023-03-07T04:55:58.813Z,3.36
2023-03-07T05:01:00.076Z,3.37
2023-03-07T05:06:01.337Z,3.39
2023-03-07T05:11:02.536Z,3.40
2023-03-07T05:16:03.854Z,3.40
2023-03-07T05:21:05.130Z,3.41
2023-03-07T05:26:06.271Z,3.41
2023-03-07T05:31:07.521Z,3.38
2023-03-07T05:36:08.727Z,3.38
2023-03-07T05:41:09.915Z,3.37
2023-03-07T05:46:11.138Z,3.37
2023-03-07T05:51:12.502Z,3.35
2023-03-07T05:56:13.925Z,3.36
2023-03-07T06:01:15.190Z,3.04
2023-03-07T06:06:16.346Z,3.36
2023-03-07T06:11:17.511Z,3.37
2023-03-07T06:16:18.808Z,3.38
2023-03-07T06:21:20.022Z,3.41
2023-03-07T06:26:21.261Z,3.43
2023-03-07T06:31:22.688Z,3.50
2023-03-07T06:36:23.967Z,3.53
2023-03-07T06:41:25.128Z,3.58
2023-03-07T06:46:26.360Z,3.59
2023-03-07T06:51:28.138Z,3.59
2023-03-07T06:56:30.293Z,3.60
2023-03-07T07:01:31.561Z,3.61
2023-03-07T07:06:32.762Z,3.64
2023-03-07T07:11:34.305Z,3.66
2023-03-07T07:16:36.376Z,3.71
2023-03-07T07:21:37.764Z,3.75
2023-03-07T07:26:38.971Z,3.78
2023-03-07T07:31:40.266Z,3.83
2023-03-07T07:36:41.497Z,3.87
2023-03-07T07:41:42.767Z,3.93
2023-03-07T07:46:43.991Z,4.00
2023-03-07T07:51:45.189Z,4.10
2023-03-07T07:56:46.628Z,4.13
2023-03-07T08:01:47.804Z,4.18
2023-03-07T08:06:49.018Z,4.20
2023-03-07T08:11:50.305Z,4.14
2023-03-07T08:16:51.479Z,4.09
2023-03-07T08:21:52.759Z,4.08
2023-03-07T08:26:53.905Z,4.05
2023-03-07T08:31:55.132Z,4.08
2023-03-07T08:36:56.283Z,4.12
2023-03-07T08:41:57.490Z,4.17
2023-03-07T08:46:58.680Z,4.24
2023-03-07T08:51:59.827Z,4.26
2023-03-07T08:57:01.307Z,4.29
2023-03-07T09:02:02.568Z,4.35
2023-03-07T09:07:03.792Z,4.42
2023-03-07T09:12:04.967Z,4.46
2023-03-07T09:17:06.226Z,4.47
2023-03-07T09:22:07.404Z,4.46
2023-03-07T09:27:08.567Z,4.47
2023-03-07T09:32:09.820Z,4.44
2023-03-07T09:37:11.086Z,4.45
2023-03-07T09:42:12.324Z,4.50
2023-03-07T09:47:13.564Z,4.59
2023-03-07T09:52:14.780Z,4.63
2023-03-07T09:57:17.712Z,4.73
2023-03-07T10:02:19.514Z,4.80
2023-03-07T10:07:20.698Z,4.87
2023-03-07T10:12:21.885Z,4.90
2023-03-07T10:17:23.038Z,4.81
2023-03-07T10:22:24.477Z,4.74
2023-03-07T10:27:25.957Z,4.71
2023-03-07T10:32:27.321Z,4.68
2023-03-07T10:37:28.576Z,4.65
2023-03-07T10:42:29.854Z,4.64
2023-03-07T10:47:31.233Z,4.65
2023-03-07T10:52:32.576Z,4.63
2023-03-07T10:57:33.715Z,4.70
2023-03-07T11:02:34.911Z,4.79
2023-03-07T11:07:36.092Z,4.75
2023-03-07T11:12:37.263Z,4.67
2023-03-07T11:17:38.441Z,4.60
2023-03-07T11:22:39.969Z,4.48
2023-03-07T11:27:41.135Z,3.98
2023-03-07T11:32:42.376Z,3.63
2023-03-07T11:37:43.605Z,3.39
2023-03-07T11:42:44.799Z,3.26
2023-03-07T11:47:46.850Z,3.25
2023-03-07T11:52:48.043Z,3.25
2023-03-07T11:57:49.263Z,3.20
2023-03-07T12:02:50.483Z,3.28
2023-03-07T12:07:51.727Z,3.34
2023-03-07T12:12:52.993Z,3.37
2023-03-07T12:17:54.151Z,3.32
2023-03-07T12:22:55.323Z,3.29
2023-03-07T12:27:56.481Z,3.10
2023-03-07T12:32:57.735Z,3.20
2023-03-07T12:37:58.965Z,3.05
2023-03-07T12:43:00.122Z,3.21
2023-03-07T12:48:01.358Z,3.06
2023-03-07T12:53:03.837Z,2.97
2023-03-07T12:58:05.090Z,2.88
2023-03-07T13:03:06.731Z,2.82
2023-03-07T13:08:08.468Z,2.72
2023-03-07T13:13:09.662Z,2.79
2023-03-07T13:18:10.857Z,2.74
2023-03-07T13:23:12.300Z,2.77
2023-03-07T13:28:13.462Z,2.97
2023-03-07T13:33:14.681Z,2.82
2023-03-07T13:38:15.848Z,2.84
2023-03-07T13:43:17.033Z,2.73
2023-03-07T13:48:18.210Z,2.82
2023-03-07T13:53:20.144Z,2.95
2023-03-07T13:58:21.342Z,2.80
2023-03-07T14:03:22.529Z,2.98
2023-03-07T14:08:23.842Z,2.77
2023-03-07T14:13:25.026Z,2.68
2023-03-07T14:18:26.289Z,2.75
2023-03-07T14:23:27.584Z,2.54
2023-03-07T14:28:28.821Z,2.36
2023-03-07T14:33:29.981Z,2.14
2023-03-07T14:38:32.116Z,2.14
2023-03-07T14:43:33.312Z,2.36
2023-03-07T14:48:34.484Z,2.48
2023-03-07T14:53:35.681Z,2.36
2023-03-07T14:58:37.004Z,2.09
2023-03-07T15:03:38.190Z,2.08
2023-03-07T15:08:39.424Z,1.84
2023-03-07T15:13:40.607Z,1.77
2023-03-07T15:18:41.837Z,1.69
2023-03-07T15:23:43.125Z,1.76
2023-03-07T15:28:44.400Z,1.81
2023-03-07T15:33:45.841Z,1.66
2023-03-07T15:38:47.068Z,1.47
2023-03-07T15:43:48.239Z,1.56
2023-03-07T15:48:49.578Z,1.43
2023-03-07T15:53:50.786Z,1.38
2023-03-07T15:58:51.930Z,1.41
2023-03-07T16:03:53.324Z,1.38
2023-03-07T16:08:54.596Z,1.35
2023-03-07T16:13:55.838Z,1.33
2023-03-07T16:19:00.346Z,1.33
2023-03-07T16:24:01.567Z,1.33
2023-03-07T16:29:03.470Z,1.25
2023-03-07T16:34:04.655Z,1.22
2023-03-07T16:39:05.783Z,1.20
2023-03-07T16:44:06.997Z,1.14
2023-03-07T16:49:08.162Z,1.04
2023-03-07T16:54:09.321Z,0.96
2023-03-07T16:59:10.598Z,0.95
2023-03-07T17:04:11.849Z,0.94
2023-03-07T17:09:13.058Z,0.91
2023-03-07T17:14:14.273Z,0.93
2023-03-07T17:19:15.461Z,0.90
2023-03-07T17:24:16.739Z,0.89
2023-03-07T17:29:17.971Z,0.88
2023-03-07T17:34:19.186Z,0.81
2023-03-07T17:39:20.544Z,0.76
2023-03-07T17:44:22.041Z,0.73
2023-03-07T17:49:23.512Z,0.76
2023-03-07T17:54:24.731Z,0.73
2023-03-07T17:59:26.070Z,0.71
2023-03-07T18:04:30.972Z,0.69
2023-03-07T18:09:32.219Z,0.68
2023-03-07T18:14:33.493Z,0.68
2023-03-07T18:19:34.692Z,0.65
2023-03-07T18:24:36.436Z,0.66
2023-03-07T18:29:37.673Z,0.66
2023-03-07T18:34:38.908Z,0.68
2023-03-07T18:39:40.114Z,0.68
2023-03-07T18:44:41.373Z,0.65
2023-03-07T18:49:42.628Z,0.64
2023-03-07T18:54:43.772Z,0.64
2023-03-07T18:59:44.931Z,0.68
2023-03-07T19:04:46.153Z,0.66
2023-03-07T19:09:53.054Z,0.66
2023-03-07T19:14:54.218Z,0.62
2023-03-07T19:19:59.146Z,0.59
2023-03-07T19:25:00.449Z,0.59
2023-03-07T19:30:01.626Z,0.54
2023-03-07T19:35:02.825Z,0.51
2023-03-07T19:40:04.037Z,0.47
2023-03-07T19:45:05.205Z,0.48
2023-03-07T19:50:06.396Z,0.46
2023-03-07T19:55:07.655Z,0.47
2023-03-07T20:00:08.984Z,0.47
2023-03-07T20:05:10.174Z,0.45
2023-03-07T20:10:11.389Z,0.42
2023-03-07T20:15:12.868Z,0.40
2023-03-07T20:20:14.127Z,0.43
2023-03-07T20:25:15.347Z,0.52
2023-03-07T20:30:16.529Z,0.52
2023-03-07T20:35:17.894Z,0.51
2023-03-07T20:40:19.025Z,0.29
2023-03-07T20:45:20.971Z,0.45
2023-03-07T20:50:22.121Z,0.44
2023-03-07T20:55:23.372Z,0.45
2023-03-07T21:00:24.976Z,0.47
2023-03-07T21:05:26.109Z,0.47
2023-03-07T21:10:27.422Z,0.51
2023-03-07T21:15:28.631Z,0.50
2023-03-07T21:20:29.802Z,0.50
2023-03-07T21:25:30.987Z,0.45
2023-03-07T21:30:32.200Z,0.44
2023-03-07T21:35:33.545Z,0.43
2023-03-07T21:40:35.064Z,0.42
2023-03-07T21:45:36.342Z,0.43
2023-03-07T21:50:40.639Z,0.42
2023-03-07T21:55:41.879Z,0.41
2023-03-07T22:00:43.098Z,0.42
2023-03-07T22:05:44.400Z,0.44
2023-03-07T22:10:45.617Z,0.41
2023-03-07T22:15:46.775Z,0.40
2023-03-07T22:20:48.386Z,0.37
2023-03-07T22:25:49.535Z,0.39
2023-03-07T22:30:51.877Z,0.40
2023-03-07T22:35:53.303Z,0.39
2023-03-07T22:40:54.582Z,0.39
2023-03-07T22:45:55.892Z,0.41
2023-03-07T22:50:57.093Z,0.44
2023-03-07T22:55:59.336Z,0.45
2023-03-07T23:01:00.502Z,0.44
2023-03-07T23:06:02.146Z,0.43
2023-03-07T23:11:03.538Z,0.43
2023-03-07T23:16:05.154Z,0.42
2023-03-07T23:21:06.430Z,0.43
2023-03-07T23:26:07.595Z,0.14
2023-03-07T23:31:08.859Z,0.49
2023-03-07T23:36:10.697Z,0.51
2023-03-07T23:41:11.941Z,0.52
2023-03-07T23:46:13.265Z,0.50
2023-03-07T23:51:14.868Z,0.52
2023-03-07T23:56:16.194Z,0.52
